Accueil
METAR-TAF:

METAR-TAF

Aéroports :

Aviano Air Base

Aviano, Italie

latitude: 46-02N, longitude: 012-36E, altitude: 128 m

Observation

Le bulletin a été fait il y a 1 heure et 14 minutes, à 09:55 UTC
Vent 6 kt de est/nord-est
Température 9°C
Humidité 61%
Pression 1017 hPa
Visibilité 10 km ou plus
Nuages épars à une hauteur de 11000 ft

METAR: LIPA 290955Z 06006KT 9999 SCT110 09/02 Q1017 RMK BKN SCT180 VIS MIN 9999 WIND THR05 /////KT WIND THR23 /////KT A3005 BLU

Heure: 12:09 (11:09 UTC)

Prévision

Le bulletin a été fait il y a 3 heures et 9 minutes, à 08:00 UTC
Prévision valable du 29 à 09 UTC au 29 à 18 UTC
Vent 4 kt de nord-est
Visibilité 10 km ou plus
pas de nuages en-dessous de 1500 mètres et pas de cumulonimbus.

TAF: LIPA 290800Z 2909/2918 05004KT CAVOK

Observations et prévisions météorologiques de plus de 4000 aéroports (messages METAR et TAF).

Les stations disponibles sont représentées par des disques jaunes et rouges sur la carte.

Passer la souris dessus pour voir le nom de la station.

Cliquer dessus pour voir les observations et prévisions météorologiques.

Pour changer de carte: cliquez sur les boutons verts avec une croix noire pour zoomer, sur le bouton vert avec un tiret pour effectuer un zoom arrière, ou sur les flèches vertes pour les cartes adjacentes.


METAR-TAF: